createdAt,value
2023-03-04T00:00:26.020Z,0.50
2023-03-04T00:02:52.593Z,0.50
2023-03-04T00:05:19.718Z,0.50
2023-03-04T00:07:45.958Z,0.50
2023-03-04T00:10:12.163Z,0.50
2023-03-04T00:12:38.355Z,0.50
2023-03-04T00:15:05.350Z,0.50
2023-03-04T00:17:31.568Z,0.60
2023-03-04T00:19:57.883Z,0.80
2023-03-04T00:22:24.073Z,0.80
2023-03-04T00:24:50.232Z,0.60
2023-03-04T00:27:16.394Z,0.60
2023-03-04T00:29:42.791Z,0.70
2023-03-04T00:32:09.035Z,0.60
2023-03-04T00:34:35.770Z,0.60
2023-03-04T00:37:02.974Z,0.80
2023-03-04T00:39:29.450Z,0.70
2023-03-04T00:41:55.704Z,0.70
2023-03-04T00:44:21.884Z,0.70
2023-03-04T00:46:48.037Z,0.70
2023-03-04T00:49:14.268Z,0.70
2023-03-04T00:51:40.486Z,0.70
2023-03-04T00:54:06.666Z,0.70
2023-03-04T00:56:32.776Z,0.70
2023-03-04T00:58:59.266Z,0.80
2023-03-04T01:01:25.500Z,0.80
2023-03-04T01:03:51.691Z,0.80
2023-03-04T01:06:17.829Z,0.80
2023-03-04T01:08:43.982Z,0.80
2023-03-04T01:11:10.218Z,0.80
2023-03-04T01:13:37.358Z,0.80
2023-03-04T01:16:05.368Z,0.80
2023-03-04T01:18:31.746Z,0.80
2023-03-04T01:20:57.898Z,0.90
2023-03-04T01:23:24.089Z,0.80
2023-03-04T01:25:52.084Z,0.90
2023-03-04T01:28:18.260Z,0.90
2023-03-04T01:30:45.355Z,0.90
2023-03-04T01:33:11.668Z,0.90
2023-03-04T01:35:37.834Z,0.90
2023-03-04T01:38:05.187Z,0.90
2023-03-04T01:40:31.466Z,0.90
2023-03-04T01:42:57.706Z,1.00
2023-03-04T01:45:23.909Z,1.00
2023-03-04T01:47:51.503Z,1.00
2023-03-04T01:50:27.123Z,1.00
2023-03-04T01:52:53.574Z,1.00
2023-03-04T01:55:20.610Z,1.00
2023-03-04T01:57:48.057Z,1.00
2023-03-04T02:00:24.555Z,1.00
2023-03-04T02:02:56.301Z,1.00
2023-03-04T02:05:22.461Z,1.10
2023-03-04T02:07:50.089Z,1.10
2023-03-04T02:10:17.232Z,1.10
2023-03-04T02:12:44.071Z,1.30
2023-03-04T02:15:10.391Z,1.10
2023-03-04T02:17:36.641Z,1.10
2023-03-04T02:20:16.769Z,1.40
2023-03-04T02:22:58.090Z,1.10
2023-03-04T02:25:28.681Z,1.10
2023-03-04T02:30:22.598Z,1.10
2023-03-04T02:32:48.751Z,1.20
2023-03-04T02:35:18.563Z,1.20
2023-03-04T02:40:21.835Z,1.20
2023-03-04T02:42:48.043Z,1.20
2023-03-04T02:45:37.061Z,1.20
2023-03-04T02:48:03.778Z,1.20
2023-03-04T02:50:32.960Z,1.20
2023-03-04T02:52:59.092Z,1.30
2023-03-04T02:55:25.620Z,1.10
2023-03-04T02:57:52.518Z,1.20
2023-03-04T03:00:19.041Z,1.20
2023-03-04T03:02:45.221Z,1.30
2023-03-04T03:05:12.070Z,1.20
2023-03-04T03:07:38.200Z,1.40
2023-03-04T03:10:05.308Z,1.20
2023-03-04T03:19:51.968Z,1.30
2023-03-04T03:24:45.165Z,1.20
2023-03-04T03:32:05.442Z,1.20
2023-03-04T03:46:44.562Z,1.30
2023-03-04T03:51:37.561Z,1.20
2023-03-04T03:56:30.324Z,1.40
2023-03-04T03:58:57.349Z,1.30
2023-03-04T04:01:23.592Z,1.30
2023-03-04T04:03:49.704Z,1.30
2023-03-04T04:06:15.948Z,1.30
2023-03-04T04:08:42.080Z,1.30
2023-03-04T04:11:10.360Z,1.30
2023-03-04T04:13:38.918Z,1.30
2023-03-04T04:16:07.698Z,1.30
2023-03-04T04:18:34.024Z,1.30
2023-03-04T04:21:00.271Z,1.30
2023-03-04T04:23:26.509Z,1.30
2023-03-04T04:25:55.221Z,1.40
2023-03-04T04:28:21.520Z,1.30
2023-03-04T04:30:48.644Z,1.30
2023-03-04T04:33:15.363Z,1.50
2023-03-04T04:38:08.522Z,1.50
2023-03-04T04:40:35.002Z,1.30
2023-03-04T04:43:01.203Z,1.40
2023-03-04T04:45:27.466Z,1.30
2023-03-04T04:47:57.050Z,1.30
2023-03-04T04:50:24.315Z,1.50
2023-03-04T04:52:50.530Z,1.50
2023-03-04T05:00:10.826Z,1.40
2023-03-04T05:02:37.861Z,1.60
2023-03-04T05:05:05.083Z,1.30
2023-03-04T05:09:57.786Z,1.20
2023-03-04T05:22:10.400Z,1.50
2023-03-04T05:29:30.091Z,1.50
2023-03-04T05:34:22.993Z,1.70
2023-03-04T05:44:09.533Z,1.40
2023-03-04T05:46:35.859Z,1.60
2023-03-04T06:15:57.932Z,2.00
2023-03-04T06:18:24.380Z,1.90
2023-03-04T06:20:51.074Z,2.00
2023-03-04T06:23:17.332Z,2.00
2023-03-04T06:25:43.533Z,2.00
2023-03-04T06:28:09.805Z,2.00
2023-03-04T06:30:35.967Z,2.00
2023-03-04T06:33:02.185Z,2.00
2023-03-04T06:35:28.453Z,2.10
2023-03-04T06:37:54.735Z,2.10
2023-03-04T06:40:20.860Z,2.10
2023-03-04T06:42:47.160Z,2.10
2023-03-04T06:45:14.401Z,2.10
2023-03-04T06:47:40.647Z,2.10
2023-03-04T06:50:08.063Z,2.10
2023-03-04T06:52:34.353Z,2.10
2023-03-04T06:55:00.510Z,2.10
2023-03-04T06:57:27.399Z,2.10
2023-03-04T06:59:53.576Z,2.20
2023-03-04T07:02:19.852Z,2.10
2023-03-04T07:04:46.083Z,2.10
2023-03-04T07:07:12.792Z,2.20
2023-03-04T07:09:39.049Z,2.20
2023-03-04T07:12:05.864Z,2.20
2023-03-04T07:14:32.049Z,2.20
2023-03-04T07:16:58.242Z,2.20
2023-03-04T07:19:25.591Z,2.30
2023-03-04T07:21:51.765Z,2.40
2023-03-04T07:29:12.095Z,2.40
2023-03-04T07:34:06.564Z,2.40
2023-03-04T07:36:33.796Z,2.50
2023-03-04T07:43:55.058Z,2.60
2023-03-04T07:46:21.366Z,2.50
2023-03-04T07:48:47.606Z,2.80
2023-03-04T07:51:15.873Z,2.60
2023-03-04T07:53:43.681Z,2.80
2023-03-04T07:56:12.637Z,2.40
2023-03-04T08:01:18.802Z,2.70
2023-03-04T08:06:13.409Z,3.70
2023-03-04T08:08:39.853Z,2.70
2023-03-04T08:11:11.022Z,2.80
2023-03-04T08:16:04.775Z,2.80
2023-03-04T08:18:31.093Z,2.70
2023-03-04T08:20:57.321Z,2.70
2023-03-04T08:23:23.778Z,2.80
2023-03-04T08:28:18.167Z,2.70
2023-03-04T08:35:39.040Z,2.90
2023-03-04T08:38:06.190Z,2.80
2023-03-04T08:40:32.768Z,3.30
2023-03-04T08:52:49.242Z,3.30
2023-03-04T09:00:10.321Z,3.00
2023-03-04T09:02:36.700Z,3.10
2023-03-04T09:05:03.649Z,3.40
2023-03-04T09:07:29.840Z,3.30
2023-03-04T09:09:56.107Z,3.20
2023-03-04T09:12:23.249Z,3.40
2023-03-04T09:15:01.140Z,3.30
2023-03-04T09:17:35.368Z,3.40
2023-03-04T09:20:04.544Z,3.50
2023-03-04T09:22:31.025Z,3.50
2023-03-04T09:24:58.162Z,3.40
2023-03-04T09:34:47.507Z,3.60
2023-03-04T09:37:13.784Z,3.60
2023-03-04T09:39:40.505Z,3.60
2023-03-04T09:42:08.334Z,3.80
2023-03-04T09:44:41.915Z,3.60
2023-03-04T09:47:17.331Z,3.70
2023-03-04T09:49:53.824Z,3.70
2023-03-04T09:53:07.279Z,3.70
2023-03-04T09:55:45.409Z,3.60
2023-03-04T09:58:42.802Z,3.70
2023-03-04T10:01:21.795Z,3.50
2023-03-04T10:05:12.707Z,3.60
2023-03-04T10:07:40.829Z,3.60
2023-03-04T10:10:16.247Z,3.70
2023-03-04T10:12:47.116Z,3.80
2023-03-04T10:15:55.812Z,3.80
2023-03-04T10:19:22.154Z,4.20
2023-03-04T10:21:53.546Z,4.00
2023-03-04T10:24:23.830Z,4.20
2023-03-04T10:26:52.096Z,3.90
2023-03-04T10:29:20.514Z,3.60
2023-03-04T10:31:49.237Z,4.20
2023-03-04T10:34:16.559Z,4.30
2023-03-04T10:37:02.572Z,4.50
2023-03-04T10:39:33.994Z,4.60
2023-03-04T10:42:48.919Z,4.50
2023-03-04T10:45:25.358Z,4.60
2023-03-04T10:47:56.104Z,4.40
2023-03-04T10:50:27.159Z,4.40
2023-03-04T10:52:55.215Z,4.20
2023-03-04T10:55:29.355Z,4.40
2023-03-04T10:58:01.463Z,4.40
2023-03-04T11:00:33.805Z,4.40
2023-03-04T11:03:33.197Z,4.40
2023-03-04T11:06:24.705Z,4.50
2023-03-04T11:09:00.929Z,4.70
2023-03-04T11:11:33.941Z,4.60
2023-03-04T11:14:02.665Z,4.70
2023-03-04T11:16:30.523Z,4.70
2023-03-04T11:19:04.695Z,4.60
2023-03-04T11:21:34.685Z,4.90
2023-03-04T11:24:27.460Z,4.80
2023-03-04T11:27:58.667Z,4.60
2023-03-04T11:30:45.425Z,4.70
2023-03-04T11:33:27.514Z,4.90
2023-03-04T11:36:14.289Z,4.50
2023-03-04T11:38:50.296Z,4.60
2023-03-04T11:41:55.243Z,4.70
2023-03-04T11:44:22.304Z,4.60
2023-03-04T11:49:42.287Z,4.80
2023-03-04T11:53:05.722Z,5.10
2023-03-04T11:55:51.183Z,5.70
2023-03-04T12:00:29.910Z,5.70
2023-03-04T12:04:01.212Z,5.70
2023-03-04T12:06:51.537Z,5.60
2023-03-04T12:10:43.556Z,5.60
2023-03-04T12:14:49.403Z,5.40
2023-03-04T12:17:53.577Z,5.40
2023-03-04T12:21:15.990Z,5.80
2023-03-04T12:25:23.846Z,5.80
2023-03-04T12:34:06.526Z,5.50
2023-03-04T12:37:25.188Z,6.00
2023-03-04T12:40:22.039Z,7.20
2023-03-04T12:43:14.430Z,7.30
2023-03-04T12:49:16.585Z,7.10
2023-03-04T12:52:03.049Z,6.10
2023-03-04T12:54:39.828Z,6.10
2023-03-04T12:57:24.909Z,6.10
2023-03-04T13:06:54.985Z,6.20
2023-03-04T13:09:33.280Z,6.20
2023-03-04T13:12:22.192Z,5.80
2023-03-04T13:17:22.364Z,5.80
2023-03-04T13:21:39.323Z,5.50
2023-03-04T13:24:43.862Z,5.30
2023-03-04T13:30:42.659Z,5.50
2023-03-04T13:33:55.931Z,5.80
2023-03-04T13:36:31.532Z,5.90
2023-03-04T13:39:43.629Z,5.90
2023-03-04T13:42:38.570Z,5.90
2023-03-04T13:45:28.161Z,5.90
2023-03-04T13:47:54.356Z,6.30
2023-03-04T13:50:53.977Z,6.50
2023-03-04T13:54:43.109Z,6.60
2023-03-04T13:57:21.403Z,6.60
2023-03-04T13:59:57.225Z,6.50
2023-03-04T14:02:25.356Z,6.30
2023-03-04T14:04:59.073Z,6.20
2023-03-04T14:07:32.977Z,6.10
2023-03-04T14:10:04.973Z,6.10
2023-03-04T14:12:33.646Z,6.10
2023-03-04T14:15:02.200Z,5.90
2023-03-04T14:17:30.648Z,5.90
2023-03-04T14:19:56.849Z,5.80
2023-03-04T14:22:34.018Z,5.70
2023-03-04T14:25:26.030Z,5.80
2023-03-04T14:28:43.641Z,5.80
2023-03-04T14:31:18.936Z,5.80
2023-03-04T14:33:50.832Z,5.80
2023-03-04T14:36:20.132Z,5.80
2023-03-04T14:38:54.396Z,5.80
2023-03-04T14:41:29.080Z,5.80
2023-03-04T14:44:40.554Z,5.90
2023-03-04T14:47:17.872Z,5.90
2023-03-04T14:49:44.657Z,5.90
2023-03-04T14:56:00.610Z,5.80
2023-03-04T14:58:31.244Z,5.00
2023-03-04T15:03:37.233Z,4.70
2023-03-04T15:06:23.687Z,4.80
2023-03-04T15:09:26.157Z,4.80
2023-03-04T15:12:55.082Z,4.80
2023-03-04T15:19:35.787Z,4.90
2023-03-04T15:22:06.274Z,4.90
2023-03-04T15:24:32.929Z,4.90
2023-03-04T15:27:00.508Z,4.90
2023-03-04T15:29:28.974Z,4.90
2023-03-04T15:31:56.783Z,4.90
2023-03-04T15:34:23.634Z,4.80
2023-03-04T15:36:51.684Z,4.80
2023-03-04T15:39:19.593Z,4.80
2023-03-04T15:41:47.823Z,4.70
2023-03-04T15:44:14.216Z,5.00
2023-03-04T15:46:41.823Z,4.80
2023-03-04T15:49:08.330Z,4.70
2023-03-04T15:51:35.865Z,4.70
2023-03-04T15:54:02.313Z,4.70
2023-03-04T15:56:30.686Z,4.70
2023-03-04T15:59:08.719Z,4.70
2023-03-04T16:01:35.230Z,4.70
2023-03-04T16:04:01.960Z,4.80
2023-03-04T16:06:29.666Z,4.80
2023-03-04T16:08:57.118Z,4.70
2023-03-04T16:11:29.619Z,4.80
2023-03-04T16:13:56.508Z,4.80
2023-03-04T16:16:25.490Z,4.80
2023-03-04T16:18:53.606Z,4.80
2023-03-04T16:21:22.509Z,4.80
2023-03-04T16:23:49.313Z,4.70
2023-03-04T16:26:17.629Z,4.70
2023-03-04T16:28:43.873Z,4.70
2023-03-04T16:31:13.760Z,4.70
2023-03-04T16:33:42.047Z,4.70
2023-03-04T16:37:12.461Z,4.70
2023-03-04T16:39:41.603Z,4.80
2023-03-04T16:42:14.020Z,4.70
2023-03-04T16:44:40.402Z,4.70
2023-03-04T16:47:07.339Z,4.60
2023-03-04T16:49:34.612Z,4.60
2023-03-04T16:52:00.889Z,4.60
2023-03-04T16:54:29.735Z,4.60
2023-03-04T16:56:57.816Z,4.60
2023-03-04T16:59:24.848Z,4.60
2023-03-04T17:01:53.595Z,4.60
2023-03-04T17:04:20.364Z,4.60
2023-03-04T17:06:46.899Z,4.60
2023-03-04T17:09:13.229Z,4.60
2023-03-04T17:11:39.665Z,4.60
2023-03-04T17:14:06.502Z,4.60
2023-03-04T17:16:33.262Z,4.60
2023-03-04T17:18:59.741Z,4.50
2023-03-04T17:21:26.348Z,4.50
2023-03-04T17:23:53.463Z,4.50
2023-03-04T17:26:20.429Z,4.50
2023-03-04T17:28:49.323Z,4.40
2023-03-04T17:31:17.065Z,4.40
2023-03-04T17:33:44.616Z,4.40
2023-03-04T17:36:12.276Z,4.30
2023-03-04T17:38:39.114Z,4.30
2023-03-04T17:41:07.714Z,4.30
2023-03-04T17:43:33.946Z,4.20
2023-03-04T17:46:11.225Z,4.20
2023-03-04T17:48:37.893Z,4.90
2023-03-04T17:51:05.210Z,4.10
2023-03-04T17:53:32.469Z,4.10
2023-03-04T17:56:01.068Z,4.10
2023-03-04T17:58:28.821Z,4.10
2023-03-04T18:01:05.321Z,4.10
2023-03-04T18:03:32.010Z,4.10
2023-03-04T18:06:00.039Z,4.10
2023-03-04T18:08:27.654Z,4.10
2023-03-04T18:10:54.539Z,4.10
2023-03-04T18:13:21.015Z,4.10
2023-03-04T18:15:47.351Z,4.10
2023-03-04T18:18:16.327Z,4.10
2023-03-04T18:20:42.899Z,4.10
2023-03-04T18:23:11.825Z,4.10
2023-03-04T18:25:38.802Z,4.10
2023-03-04T18:28:17.963Z,4.10
2023-03-04T18:30:49.515Z,4.10
2023-03-04T18:33:16.302Z,4.10
2023-03-04T18:35:45.631Z,4.10
2023-03-04T18:38:19.070Z,4.10
2023-03-04T18:40:48.358Z,4.10
2023-03-04T18:43:15.801Z,4.10
2023-03-04T18:45:46.483Z,4.10
2023-03-04T18:48:13.586Z,4.10
2023-03-04T18:50:41.001Z,4.10
2023-03-04T18:53:15.943Z,4.10
2023-03-04T18:55:45.727Z,4.10
2023-03-04T18:58:13.466Z,4.10
2023-03-04T19:00:40.435Z,4.10
2023-03-04T19:03:08.351Z,4.10
2023-03-04T19:05:35.592Z,4.10
2023-03-04T19:08:02.031Z,4.20
2023-03-04T19:10:30.726Z,4.20
2023-03-04T19:12:59.665Z,4.20
2023-03-04T19:15:27.373Z,4.00
2023-03-04T19:17:54.105Z,3.70
2023-03-04T19:20:20.679Z,3.50
2023-03-04T19:22:48.436Z,3.40
2023-03-04T19:25:15.529Z,3.30
2023-03-04T19:27:42.758Z,3.30
2023-03-04T19:30:10.047Z,3.30
2023-03-04T19:32:36.439Z,3.30
2023-03-04T19:35:03.910Z,3.30
2023-03-04T19:37:30.482Z,3.30
2023-03-04T19:39:58.273Z,3.30
2023-03-04T19:42:25.378Z,3.30
2023-03-04T19:44:52.433Z,3.30
2023-03-04T19:47:19.713Z,3.30
2023-03-04T19:49:46.728Z,3.30
2023-03-04T19:52:13.654Z,3.30
2023-03-04T19:54:41.796Z,3.30
2023-03-04T19:57:08.737Z,3.20
2023-03-04T19:59:35.614Z,3.30
2023-03-04T20:02:03.414Z,3.20
2023-03-04T20:04:29.884Z,3.20
2023-03-04T20:06:57.932Z,3.20
2023-03-04T20:09:24.927Z,3.20
2023-03-04T20:11:58.102Z,3.20
2023-03-04T20:14:26.884Z,3.10
2023-03-04T20:16:53.254Z,3.10
2023-03-04T20:19:20.165Z,3.10
2023-03-04T20:21:46.638Z,3.10
2023-03-04T20:24:15.241Z,3.00
2023-03-04T20:26:42.834Z,3.10
2023-03-04T20:29:10.353Z,3.10
2023-03-04T20:31:38.242Z,3.00
2023-03-04T20:34:07.266Z,3.00
2023-03-04T20:36:34.327Z,3.00
2023-03-04T20:39:02.821Z,3.00
2023-03-04T20:41:33.050Z,3.00
2023-03-04T20:43:59.657Z,3.00
2023-03-04T20:46:47.296Z,2.90
2023-03-04T20:49:23.180Z,2.90
2023-03-04T20:51:51.114Z,2.90
2023-03-04T20:54:17.797Z,2.90
2023-03-04T20:56:45.734Z,2.90
2023-03-04T20:59:12.855Z,2.80
2023-03-04T21:01:41.055Z,2.80
2023-03-04T21:04:08.230Z,2.80
2023-03-04T21:06:36.445Z,2.70
2023-03-04T21:09:05.681Z,2.70
2023-03-04T21:11:39.193Z,2.70
2023-03-04T21:14:07.485Z,2.70
2023-03-04T21:16:33.841Z,2.70
2023-03-04T21:19:01.149Z,2.60
2023-03-04T21:21:28.274Z,2.60
2023-03-04T21:23:55.102Z,2.60
2023-03-04T21:26:24.565Z,2.60
2023-03-04T21:28:51.827Z,2.60
2023-03-04T21:31:29.543Z,2.60
2023-03-04T21:33:55.923Z,2.60
2023-03-04T21:36:24.280Z,2.50
2023-03-04T21:38:51.636Z,2.50
2023-03-04T21:41:20.443Z,2.60
2023-03-04T21:43:48.513Z,2.50
2023-03-04T21:46:15.649Z,2.50
2023-03-04T21:48:43.870Z,2.40
2023-03-04T21:51:13.768Z,2.40
2023-03-04T21:53:40.593Z,2.40
2023-03-04T21:56:07.029Z,2.40
2023-03-04T21:58:35.461Z,2.40
2023-03-04T22:01:15.734Z,2.40
2023-03-04T22:03:43.768Z,2.40
2023-03-04T22:06:11.150Z,2.40
2023-03-04T22:08:39.634Z,2.30
2023-03-04T22:11:07.037Z,2.30
2023-03-04T22:13:33.493Z,2.30
2023-03-04T22:16:00.171Z,2.30
2023-03-04T22:18:26.647Z,2.30
2023-03-04T22:21:02.393Z,2.30
2023-03-04T22:23:29.019Z,2.30
2023-03-04T22:25:55.759Z,2.20
2023-03-04T22:28:24.667Z,2.20
2023-03-04T22:30:51.405Z,2.20
2023-03-04T22:33:17.837Z,2.20
2023-03-04T22:35:44.377Z,2.20
2023-03-04T22:38:10.685Z,2.20
2023-03-04T22:40:36.897Z,2.20
2023-03-04T22:43:04.302Z,2.20
2023-03-04T22:45:32.687Z,2.20
2023-03-04T22:47:59.288Z,2.20
2023-03-04T22:50:25.626Z,2.20
2023-03-04T22:52:52.281Z,2.20
2023-03-04T22:55:20.554Z,2.10
2023-03-04T22:57:47.782Z,2.00
2023-03-04T23:00:20.792Z,2.00
2023-03-04T23:02:47.505Z,2.00
2023-03-04T23:05:14.059Z,2.00
2023-03-04T23:07:40.467Z,2.00
2023-03-04T23:10:09.147Z,1.90
2023-03-04T23:12:35.684Z,1.90
2023-03-04T23:15:02.152Z,1.90
2023-03-04T23:17:29.365Z,1.90
2023-03-04T23:19:56.416Z,1.80
2023-03-04T23:22:22.630Z,1.80
2023-03-04T23:24:48.972Z,1.80
2023-03-04T23:27:15.284Z,1.80
2023-03-04T23:29:42.098Z,1.70
2023-03-04T23:32:08.414Z,1.70
2023-03-04T23:34:36.358Z,1.70
2023-03-04T23:37:03.282Z,1.60
2023-03-04T23:39:29.792Z,1.60
2023-03-04T23:41:56.085Z,1.60
2023-03-04T23:44:22.371Z,1.60
2023-03-04T23:46:48.626Z,1.50
2023-03-04T23:49:17.792Z,1.50
2023-03-04T23:51:45.024Z,1.50
2023-03-04T23:54:14.240Z,1.50
2023-03-04T23:56:40.386Z,1.50
2023-03-04T23:59:07.204Z,1.40
